createdAt,value
2023-01-13T00:01:17.727Z,99360.23
2023-01-13T00:03:45.487Z,99358.21
2023-01-13T00:06:14.310Z,99353.30
2023-01-13T00:08:42.015Z,99349.58
2023-01-13T00:11:10.423Z,99353.64
2023-01-13T00:13:38.825Z,99351.47
2023-01-13T00:16:07.866Z,99351.58
2023-01-13T00:18:36.950Z,99347.86
2023-01-13T00:21:10.782Z,99348.96
2023-01-13T00:23:39.503Z,99347.56
2023-01-13T00:26:08.484Z,99343.59
2023-01-13T00:28:37.094Z,99343.17
2023-01-13T00:31:06.338Z,99338.77
2023-01-13T00:33:34.397Z,99342.83
2023-01-13T00:36:02.882Z,99340.23
2023-01-13T00:38:31.414Z,99340.48
2023-01-13T00:41:03.291Z,99340.28
2023-01-13T00:43:32.591Z,99339.52
2023-01-13T00:46:00.786Z,99340.73
2023-01-13T00:48:29.557Z,99337.83
2023-01-13T00:50:58.157Z,99334.96
2023-01-13T00:53:26.915Z,99334.14
2023-01-13T00:56:01.168Z,99333.90
2023-01-13T00:58:31.042Z,99335.10
2023-01-13T01:01:02.853Z,99334.50
2023-01-13T01:03:31.086Z,99334.45
2023-01-13T01:06:03.847Z,99334.54
2023-01-13T01:08:31.911Z,99326.74
2023-01-13T01:11:03.522Z,99322.50
2023-01-13T01:13:31.257Z,99323.55
2023-01-13T01:15:58.894Z,99322.09
2023-01-13T01:18:26.595Z,99324.80
2023-01-13T01:20:54.304Z,99320.41
2023-01-13T01:23:22.002Z,99314.09
2023-01-13T01:25:49.753Z,99315.13
2023-01-13T01:28:19.433Z,99311.20
2023-01-13T01:30:47.183Z,99306.06
2023-01-13T01:33:14.864Z,99298.61
2023-01-13T01:35:42.913Z,99296.14
2023-01-13T01:38:10.968Z,99298.12
2023-01-13T01:40:38.641Z,99291.92
2023-01-13T01:43:32.311Z,99287.89
2023-01-13T01:46:00.056Z,99283.72
2023-01-13T01:48:30.280Z,99280.42
2023-01-13T01:50:58.015Z,99274.70
2023-01-13T01:53:26.936Z,99272.58
2023-01-13T01:55:55.214Z,99267.87
2023-01-13T01:58:25.865Z,99264.98
2023-01-13T02:00:53.801Z,99265.46
2023-01-13T02:03:21.893Z,99261.85
2023-01-13T02:05:49.807Z,99259.87
2023-01-13T02:08:18.101Z,99258.44
2023-01-13T02:10:50.530Z,99259.42
2023-01-13T02:13:18.485Z,99258.27
2023-01-13T02:15:46.180Z,99250.14
2023-01-13T02:18:29.917Z,99250.11
2023-01-13T02:21:13.769Z,99248.06
2023-01-13T02:24:13.395Z,99245.57
2023-01-13T02:26:57.083Z,99245.23
2023-01-13T02:29:40.957Z,99241.16
2023-01-13T02:32:28.972Z,99238.82
2023-01-13T02:35:02.640Z,99239.31
2023-01-13T02:37:33.195Z,99236.81
2023-01-13T02:40:03.003Z,99233.48
2023-01-13T02:42:50.973Z,99230.48
2023-01-13T02:45:21.758Z,99231.98
2023-01-13T02:47:51.296Z,99226.04
2023-01-13T02:50:22.170Z,99223.73
2023-01-13T02:52:56.272Z,99220.83
2023-01-13T02:55:30.609Z,99216.27
2023-01-13T02:57:59.792Z,99212.25
2023-01-13T03:00:28.642Z,99216.10
2023-01-13T03:02:56.646Z,99209.96
2023-01-13T03:05:26.654Z,99210.64
2023-01-13T03:08:10.262Z,99206.59
2023-01-13T03:10:47.487Z,99201.06
2023-01-13T03:13:18.391Z,99200.29
2023-01-13T03:15:54.664Z,99193.32
2023-01-13T03:18:30.207Z,99195.52
2023-01-13T03:21:13.897Z,99192.69
2023-01-13T03:23:50.861Z,99193.35
2023-01-13T03:26:30.449Z,99193.58
2023-01-13T03:29:02.172Z,99188.95
2023-01-13T03:31:31.460Z,99195.25
2023-01-13T03:34:04.114Z,99186.96
2023-01-13T03:36:33.119Z,99187.97
2023-01-13T03:39:05.161Z,99190.50
2023-01-13T03:41:35.314Z,99189.20
2023-01-13T03:44:27.533Z,99195.23
2023-01-13T03:47:11.331Z,99186.52
2023-01-13T03:49:38.964Z,99185.46
2023-01-13T03:52:09.665Z,99190.05
2023-01-13T03:54:45.158Z,99189.45
2023-01-13T03:57:15.587Z,99187.10
2023-01-13T03:59:45.300Z,99182.80
2023-01-13T04:02:18.210Z,99186.05
2023-01-13T04:04:53.770Z,99184.41
2023-01-13T04:07:31.085Z,99178.55
2023-01-13T04:10:03.892Z,99183.40
2023-01-13T04:12:49.356Z,99176.79
2023-01-13T04:15:24.824Z,99181.58
2023-01-13T04:17:52.970Z,99178.73
2023-01-13T04:20:21.148Z,99177.91
2023-01-13T04:22:48.804Z,99178.96
2023-01-13T04:25:16.477Z,99180.20
2023-01-13T04:27:44.741Z,99177.42
2023-01-13T04:30:12.525Z,99178.55
2023-01-13T04:32:40.384Z,99177.91
2023-01-13T04:35:08.372Z,99178.16
2023-01-13T04:37:36.022Z,99173.72
2023-01-13T04:40:03.983Z,99177.41
2023-01-13T04:42:31.678Z,99177.65
2023-01-13T04:44:59.311Z,99175.92
2023-01-13T04:47:26.997Z,99178.05
2023-01-13T04:49:54.573Z,99174.04
2023-01-13T04:52:22.192Z,99173.19
2023-01-13T04:54:49.804Z,99174.27
2023-01-13T04:57:17.387Z,99175.36
2023-01-13T04:59:44.988Z,99176.96
2023-01-13T05:02:19.784Z,99178.83
2023-01-13T05:04:47.930Z,99176.64
2023-01-13T05:07:16.499Z,99178.85
2023-01-13T05:09:44.318Z,99173.98
2023-01-13T05:12:27.882Z,99173.86
2023-01-13T05:15:11.511Z,99175.58
2023-01-13T05:17:39.686Z,99171.94
2023-01-13T05:20:08.154Z,99176.42
2023-01-13T05:22:51.826Z,99179.90
2023-01-13T05:25:22.336Z,99174.73
2023-01-13T05:27:50.771Z,99175.92
2023-01-13T05:30:19.181Z,99178.68
2023-01-13T05:32:46.835Z,99180.27
2023-01-13T05:35:15.955Z,99181.02
2023-01-13T05:37:44.093Z,99183.24
2023-01-13T05:40:28.935Z,99184.66
2023-01-13T05:43:28.510Z,99188.15
2023-01-13T05:46:00.690Z,99186.37
2023-01-13T05:48:33.049Z,99188.15
2023-01-13T05:51:02.184Z,99182.19
2023-01-13T05:53:30.016Z,99182.67
2023-01-13T05:55:57.880Z,99184.90
2023-01-13T05:58:26.677Z,99186.15
2023-01-13T06:00:59.798Z,99190.75
2023-01-13T06:03:27.619Z,99190.97
2023-01-13T06:06:03.715Z,99189.59
2023-01-13T06:08:31.915Z,99193.10
2023-01-13T06:10:59.631Z,99197.24
2023-01-13T06:13:27.733Z,99195.86
2023-01-13T06:15:56.484Z,99197.59
2023-01-13T06:18:24.349Z,99195.49
2023-01-13T06:20:52.059Z,99195.13
2023-01-13T06:23:19.687Z,99198.60
2023-01-13T06:26:03.338Z,99195.38
2023-01-13T06:28:33.145Z,99200.19
2023-01-13T06:31:04.289Z,99197.41
2023-01-13T06:33:33.703Z,99202.88
2023-01-13T06:36:02.919Z,99201.60
2023-01-13T06:38:33.462Z,99200.14
2023-01-13T06:41:01.124Z,99203.92
2023-01-13T06:43:28.826Z,99210.41
2023-01-13T06:45:56.532Z,99206.02
2023-01-13T06:48:27.353Z,99208.51
2023-01-13T06:50:55.224Z,99206.72
2023-01-13T06:53:22.923Z,99207.92
2023-01-13T06:55:50.602Z,99207.47
2023-01-13T06:58:18.470Z,99206.02
2023-01-13T07:00:51.058Z,99205.92
2023-01-13T07:03:18.998Z,99203.70
2023-01-13T07:05:54.343Z,99207.37
2023-01-13T07:08:23.053Z,99210.77
2023-01-13T07:10:51.193Z,99214.66
2023-01-13T07:13:34.819Z,99218.35
2023-01-13T07:16:04.807Z,99213.06
2023-01-13T07:18:33.949Z,99213.25
2023-01-13T07:21:03.359Z,99216.08
2023-01-13T07:23:31.993Z,99215.73
2023-01-13T07:25:59.715Z,99215.40
2023-01-13T07:28:28.401Z,99212.75
2023-01-13T07:30:57.420Z,99218.96
2023-01-13T07:33:25.170Z,99222.02
2023-01-13T07:35:59.969Z,99225.06
2023-01-13T07:38:27.769Z,99218.52
2023-01-13T07:40:55.966Z,99220.49
2023-01-13T07:43:39.656Z,99225.08
2023-01-13T07:46:07.505Z,99226.10
2023-01-13T07:48:35.229Z,99230.14
2023-01-13T07:51:07.267Z,99227.45
2023-01-13T07:53:35.759Z,99228.17
2023-01-13T07:56:05.315Z,99231.09
2023-01-13T07:58:34.362Z,99232.34
2023-01-13T08:01:09.301Z,99235.05
2023-01-13T08:03:36.974Z,99235.34
2023-01-13T08:06:05.510Z,99242.09
2023-01-13T08:08:33.265Z,99242.33
2023-01-13T08:11:01.958Z,99246.62
2023-01-13T08:13:30.633Z,99244.34
2023-01-13T08:16:02.807Z,99246.50
2023-01-13T08:18:31.956Z,99250.43
2023-01-13T08:21:04.830Z,99246.08
2023-01-13T08:23:32.459Z,99245.96
2023-01-13T08:26:02.291Z,99253.01
2023-01-13T08:28:33.505Z,99258.42
2023-01-13T08:31:02.372Z,99260.20
2023-01-13T08:33:30.824Z,99259.16
2023-01-13T08:35:58.470Z,99260.86
2023-01-13T08:38:27.248Z,99257.29
2023-01-13T08:40:58.004Z,99259.42
2023-01-13T08:43:29.359Z,99258.41
2023-01-13T08:46:00.322Z,99251.90
2023-01-13T08:48:31.282Z,99256.21
2023-01-13T08:51:03.939Z,99259.33
2023-01-13T08:53:31.977Z,99262.58
2023-01-13T08:55:59.758Z,99270.15
2023-01-13T08:58:27.830Z,99276.77
2023-01-13T09:00:55.620Z,99275.05
2023-01-13T09:03:23.396Z,99278.90
2023-01-13T09:05:51.129Z,99281.20
2023-01-13T09:08:18.906Z,99280.45
2023-01-13T09:10:46.511Z,99282.74
2023-01-13T09:13:14.605Z,99276.09
2023-01-13T09:15:44.489Z,99279.98
2023-01-13T09:18:12.553Z,99279.19
2023-01-13T09:20:40.457Z,99275.59
2023-01-13T09:23:10.627Z,99271.66
2023-01-13T09:25:39.468Z,99270.93
2023-01-13T09:28:09.655Z,99275.16
2023-01-13T09:30:38.011Z,99271.05
2023-01-13T09:33:28.747Z,99271.50
2023-01-13T09:36:02.090Z,99272.23
2023-01-13T09:38:29.794Z,99271.36
2023-01-13T09:40:57.565Z,99267.52
2023-01-13T09:43:52.881Z,99265.13
2023-01-13T09:46:48.025Z,99267.55
2023-01-13T09:49:23.973Z,99271.09
2023-01-13T09:52:07.615Z,99272.23
2023-01-13T09:54:42.834Z,99273.48
2023-01-13T09:57:15.102Z,99264.79
2023-01-13T09:59:42.958Z,99267.23
2023-01-13T10:02:13.441Z,99261.66
2023-01-13T10:04:41.335Z,99257.27
2023-01-13T10:07:13.540Z,99255.08
2023-01-13T10:09:47.641Z,99254.95
2023-01-13T10:12:34.135Z,99258.89
2023-01-13T10:15:02.858Z,99255.28
2023-01-13T10:17:36.331Z,99254.68
2023-01-13T10:20:03.947Z,99255.33
2023-01-13T10:22:37.602Z,99249.12
2023-01-13T10:25:08.578Z,99246.47
2023-01-13T10:27:39.513Z,99246.23
2023-01-13T10:30:31.561Z,99244.98
2023-01-13T10:33:09.068Z,99242.60
2023-01-13T10:35:53.261Z,99247.37
2023-01-13T10:38:38.002Z,99249.94
2023-01-13T10:41:05.673Z,99246.73
2023-01-13T10:43:33.564Z,99240.19
2023-01-13T10:46:04.556Z,99232.41
2023-01-13T10:48:53.758Z,99236.15
2023-01-13T10:51:26.238Z,99232.52
2023-01-13T10:53:55.683Z,99229.20
2023-01-13T10:56:24.858Z,99228.33
2023-01-13T10:58:52.750Z,99230.77
2023-01-13T11:01:20.533Z,99231.73
2023-01-13T11:03:48.558Z,99232.03
2023-01-13T11:06:20.961Z,99234.77
2023-01-13T11:08:49.982Z,99235.50
2023-01-13T11:11:33.661Z,99236.67
2023-01-13T11:14:20.187Z,99231.41
2023-01-13T11:16:53.808Z,99231.09
2023-01-13T11:19:24.080Z,99235.60
2023-01-13T11:21:59.026Z,99235.27
2023-01-13T11:24:42.678Z,99237.85
2023-01-13T11:27:13.349Z,99237.21
2023-01-13T11:29:57.906Z,99230.79
2023-01-13T11:32:26.726Z,99233.08
2023-01-13T11:34:57.111Z,99228.71
2023-01-13T11:37:26.400Z,99229.21
2023-01-13T11:40:05.793Z,99233.75
2023-01-13T11:42:41.635Z,99231.90
2023-01-13T11:45:25.100Z,99227.94
2023-01-13T11:47:53.790Z,99225.69
2023-01-13T11:50:34.640Z,99227.20
2023-01-13T11:53:02.582Z,99231.21
2023-01-13T11:55:46.292Z,99232.23
2023-01-13T11:58:13.926Z,99233.84
2023-01-13T12:00:53.746Z,99234.59
2023-01-13T12:03:33.584Z,99231.41
2023-01-13T12:06:11.271Z,99228.52
2023-01-13T12:08:38.875Z,99226.45
2023-01-13T12:11:14.564Z,99221.94
2023-01-13T12:13:58.366Z,99219.70
2023-01-13T12:16:30.831Z,99218.92
2023-01-13T12:19:14.571Z,99217.27
2023-01-13T12:21:58.211Z,99222.10
2023-01-13T12:24:29.906Z,99218.02
2023-01-13T12:27:04.223Z,99214.25
2023-01-13T12:29:38.753Z,99216.21
2023-01-13T12:32:20.909Z,99214.94
2023-01-13T12:35:14.959Z,99217.74
2023-01-13T12:37:44.864Z,99219.89
2023-01-13T12:40:28.459Z,99222.89
2023-01-13T12:43:20.103Z,99222.89
2023-01-13T12:45:47.760Z,99218.54
2023-01-13T12:48:31.501Z,99221.02
2023-01-13T12:51:02.301Z,99223.13
2023-01-13T12:53:31.841Z,99226.10
2023-01-13T12:56:15.465Z,99225.48
2023-01-13T12:58:43.095Z,99223.06
2023-01-13T13:01:12.440Z,99225.93
2023-01-13T13:03:40.893Z,99230.78
2023-01-13T13:06:24.445Z,99223.63
2023-01-13T13:09:08.107Z,99228.13
2023-01-13T13:11:53.378Z,99227.48
2023-01-13T13:14:37.074Z,99232.27
2023-01-13T13:17:05.383Z,99235.74
2023-01-13T13:19:32.963Z,99237.84
2023-01-13T13:22:17.949Z,99243.83
2023-01-13T13:24:48.492Z,99244.59
2023-01-13T13:27:26.015Z,99243.10
2023-01-13T13:29:58.615Z,99241.05
2023-01-13T13:32:42.259Z,99240.66
2023-01-13T13:35:26.913Z,99238.77
2023-01-13T13:38:26.576Z,99234.19
2023-01-13T13:41:10.294Z,99239.31
2023-01-13T13:43:58.474Z,99241.13
2023-01-13T13:46:46.472Z,99245.64
2023-01-13T13:49:15.684Z,99243.38
2023-01-13T13:51:57.891Z,99236.38
2023-01-13T13:54:25.901Z,99244.81
2023-01-13T13:56:53.928Z,99243.95
2023-01-13T13:59:23.307Z,99253.67
2023-01-13T14:02:00.752Z,99259.42
2023-01-13T14:04:33.185Z,99258.89
2023-01-13T14:07:04.375Z,99259.45
2023-01-13T14:09:48.061Z,99256.26
2023-01-13T14:12:17.955Z,99260.93
2023-01-13T14:14:46.627Z,99260.12
2023-01-13T14:17:30.562Z,99258.39
2023-01-13T14:20:04.827Z,99254.27
2023-01-13T14:22:32.797Z,99255.52
2023-01-13T14:25:01.900Z,99259.42
2023-01-13T14:27:30.328Z,99261.21
2023-01-13T14:30:00.314Z,99260.52
2023-01-13T14:32:35.242Z,99262.60
2023-01-13T14:35:06.327Z,99262.65
2023-01-13T14:37:38.784Z,99267.62
2023-01-13T14:40:26.536Z,99270.29
2023-01-13T14:42:58.162Z,99266.48
2023-01-13T14:45:26.860Z,99269.74
2023-01-13T14:47:54.765Z,99267.45
2023-01-13T14:50:31.320Z,99264.80
2023-01-13T14:53:00.636Z,99271.37
2023-01-13T14:55:31.362Z,99265.15
2023-01-13T14:58:15.141Z,99268.20
2023-01-13T15:00:42.925Z,99265.99
2023-01-13T15:03:13.856Z,99255.67
2023-01-13T15:05:47.086Z,99262.55
2023-01-13T15:08:14.822Z,99267.69
2023-01-13T15:11:01.351Z,99266.34
2023-01-13T15:13:29.041Z,99270.05
2023-01-13T15:15:57.576Z,99270.05
2023-01-13T15:18:25.558Z,99273.27
2023-01-13T15:20:53.217Z,99275.36
2023-01-13T15:23:21.281Z,99278.58
2023-01-13T15:25:49.330Z,99277.66
2023-01-13T15:28:20.015Z,99279.56
2023-01-13T15:30:49.067Z,99284.48
2023-01-13T15:33:17.484Z,99280.75
2023-01-13T15:35:46.274Z,99278.55
2023-01-13T15:38:15.427Z,99278.29
2023-01-13T15:40:43.367Z,99283.29
2023-01-13T15:43:30.879Z,99287.38
2023-01-13T15:46:14.611Z,99302.58
2023-01-13T15:48:42.372Z,99308.70
2023-01-13T15:51:11.682Z,99303.43
2023-01-13T15:53:40.143Z,99294.13
2023-01-13T15:56:12.960Z,99293.64
2023-01-13T15:58:40.983Z,99287.05
2023-01-13T16:01:10.091Z,99286.92
2023-01-13T16:03:38.047Z,99288.95
2023-01-13T16:06:12.433Z,99296.55
2023-01-13T16:08:40.373Z,99296.66
2023-01-13T16:11:08.741Z,99295.00
2023-01-13T16:13:36.937Z,99293.98
2023-01-13T16:16:13.850Z,99300.46
2023-01-13T16:18:41.494Z,99297.40
2023-01-13T16:21:11.893Z,99299.42
2023-01-13T16:23:39.672Z,99299.80
2023-01-13T16:26:14.121Z,99297.66
2023-01-13T16:28:41.800Z,99300.95
2023-01-13T16:31:36.079Z,99300.44
2023-01-13T16:34:04.763Z,99298.73
2023-01-13T16:36:34.496Z,99299.38
2023-01-13T16:39:02.265Z,99290.15
2023-01-13T16:41:29.926Z,99288.27
2023-01-13T16:43:59.707Z,99288.31
2023-01-13T16:46:28.868Z,99289.93
2023-01-13T16:49:01.097Z,99293.34
2023-01-13T16:51:28.829Z,99294.67
2023-01-13T16:53:56.699Z,99297.17
2023-01-13T16:56:24.390Z,99293.92
2023-01-13T16:58:53.278Z,99290.64
2023-01-13T17:01:28.560Z,99293.45
2023-01-13T17:03:57.603Z,99292.63
2023-01-13T17:06:28.390Z,99289.52
2023-01-13T17:09:00.021Z,99294.11
2023-01-13T17:11:27.654Z,99294.20
2023-01-13T17:13:55.389Z,99306.62
2023-01-13T17:16:24.307Z,99311.02
2023-01-13T17:18:52.774Z,99312.63
2023-01-13T17:21:20.467Z,99316.45
2023-01-13T17:23:48.195Z,99317.98
2023-01-13T17:26:25.295Z,99311.48
2023-01-13T17:28:52.980Z,99308.89
2023-01-13T17:31:20.746Z,99306.66
2023-01-13T17:33:48.517Z,99304.65
2023-01-13T17:36:16.329Z,99305.48
2023-01-13T17:38:44.058Z,99311.14
2023-01-13T17:41:11.791Z,99314.30
2023-01-13T17:43:39.461Z,99317.10
2023-01-13T17:46:08.674Z,99323.70
2023-01-13T17:48:36.454Z,99326.68
2023-01-13T17:51:07.476Z,99330.70
2023-01-13T17:53:35.129Z,99335.77
2023-01-13T17:56:03.034Z,99332.71
2023-01-13T17:58:30.706Z,99336.64
2023-01-13T18:00:58.844Z,99338.15
2023-01-13T18:03:26.720Z,99339.53
2023-01-13T18:05:54.445Z,99340.17
2023-01-13T18:08:23.611Z,99340.28
2023-01-13T18:10:51.826Z,99343.73
2023-01-13T18:13:19.545Z,99347.27
2023-01-13T18:15:47.251Z,99350.23
2023-01-13T18:18:14.964Z,99348.44
2023-01-13T18:21:00.463Z,99352.90
2023-01-13T18:23:44.092Z,99353.37
2023-01-13T18:26:35.139Z,99355.16
2023-01-13T18:29:02.868Z,99362.70
2023-01-13T18:31:30.549Z,99366.09
2023-01-13T18:33:58.196Z,99365.38
2023-01-13T18:36:25.904Z,99371.73
2023-01-13T18:38:53.636Z,99373.52
2023-01-13T18:41:37.259Z,99371.93
2023-01-13T18:44:05.088Z,99377.61
2023-01-13T18:46:32.904Z,99377.08
2023-01-13T18:49:00.664Z,99378.70
2023-01-13T18:51:28.311Z,99376.27
2023-01-13T18:53:55.930Z,99372.08
2023-01-13T18:56:23.634Z,99381.02
2023-01-13T18:58:52.135Z,99375.11
2023-01-13T19:01:22.535Z,99382.20
2023-01-13T19:03:54.429Z,99383.08
2023-01-13T19:06:24.008Z,99385.77
2023-01-13T19:08:53.349Z,99384.88
2023-01-13T19:11:21.965Z,99390.04
2023-01-13T19:13:50.324Z,99389.78
2023-01-13T19:16:18.906Z,99390.96
2023-01-13T19:18:46.673Z,99398.05
2023-01-13T19:21:14.797Z,99396.13
2023-01-13T19:23:42.509Z,99398.46
2023-01-13T19:26:11.176Z,99395.80
2023-01-13T19:28:42.253Z,99397.58
2023-01-13T19:31:11.292Z,99397.01
2023-01-13T19:33:39.996Z,99401.27
2023-01-13T19:36:09.601Z,99400.21
2023-01-13T19:38:37.696Z,99401.20
2023-01-13T19:41:11.192Z,99402.23
2023-01-13T19:43:54.819Z,99410.39
2023-01-13T19:46:25.477Z,99418.75
2023-01-13T19:48:53.141Z,99417.22
2023-01-13T19:51:20.774Z,99420.39
2023-01-13T19:53:48.369Z,99425.11
2023-01-13T19:56:15.975Z,99424.98
2023-01-13T19:58:50.321Z,99425.38
2023-01-13T20:01:18.560Z,99430.80
2023-01-13T20:03:46.978Z,99436.70
2023-01-13T20:06:14.754Z,99442.04
2023-01-13T20:08:45.898Z,99447.26
2023-01-13T20:11:29.629Z,99453.39
2023-01-13T20:13:57.884Z,99460.41
2023-01-13T20:16:26.322Z,99459.05
2023-01-13T20:18:54.006Z,99455.47
2023-01-13T20:21:22.222Z,99452.20
2023-01-13T20:23:50.948Z,99455.84
2023-01-13T20:26:19.112Z,99454.57
2023-01-13T20:28:47.357Z,99460.48
2023-01-13T20:31:15.781Z,99461.80
2023-01-13T20:33:43.634Z,99468.17
2023-01-13T20:36:24.516Z,99474.44
2023-01-13T20:38:56.246Z,99474.51
2023-01-13T20:41:40.940Z,99472.61
2023-01-13T20:44:11.376Z,99474.30
2023-01-13T20:46:40.240Z,99479.58
2023-01-13T20:49:09.915Z,99478.26
2023-01-13T20:51:37.792Z,99478.11
2023-01-13T20:54:05.680Z,99474.60
2023-01-13T20:56:33.363Z,99468.77
2023-01-13T20:59:01.217Z,99473.39
2023-01-13T21:01:29.057Z,99477.05
2023-01-13T21:03:57.517Z,99475.65
2023-01-13T21:06:25.616Z,99473.42
2023-01-13T21:08:56.173Z,99469.79
2023-01-13T21:11:41.075Z,99476.23
2023-01-13T21:14:31.833Z,99475.95
2023-01-13T21:16:59.833Z,99477.34
2023-01-13T21:19:27.752Z,99483.88
2023-01-13T21:21:56.577Z,99482.68
2023-01-13T21:24:24.718Z,99481.15
2023-01-13T21:26:56.287Z,99484.49
2023-01-13T21:29:24.048Z,99488.91
2023-01-13T21:31:51.799Z,99486.51
2023-01-13T21:34:19.582Z,99483.41
2023-01-13T21:36:47.227Z,99481.09
2023-01-13T21:39:15.973Z,99479.25
2023-01-13T21:41:59.685Z,99479.15
2023-01-13T21:44:43.328Z,99476.34
2023-01-13T21:47:33.607Z,99480.77
2023-01-13T21:50:01.637Z,99484.02
2023-01-13T21:52:29.374Z,99483.89
2023-01-13T21:55:11.994Z,99483.94
2023-01-13T21:57:39.682Z,99485.00
2023-01-13T22:00:07.916Z,99485.59
2023-01-13T22:02:36.473Z,99483.23
2023-01-13T22:05:05.663Z,99487.24
2023-01-13T22:07:34.141Z,99479.45
2023-01-13T22:10:02.485Z,99478.91
2023-01-13T22:12:30.350Z,99480.38
2023-01-13T22:14:58.040Z,99485.52
2023-01-13T22:17:26.760Z,99494.91
2023-01-13T22:19:58.828Z,99493.98
2023-01-13T22:22:28.464Z,99497.75
2023-01-13T22:24:56.313Z,99501.14
2023-01-13T22:27:25.356Z,99505.63
2023-01-13T22:29:53.299Z,99509.34
2023-01-13T22:32:21.143Z,99512.67
2023-01-13T22:34:49.111Z,99513.69
2023-01-13T22:37:16.801Z,99523.16
2023-01-13T22:39:44.496Z,99517.77
2023-01-13T22:42:12.391Z,99518.92
2023-01-13T22:44:40.055Z,99518.98
2023-01-13T22:47:08.551Z,99517.79
2023-01-13T22:49:36.215Z,99525.31
2023-01-13T22:52:03.961Z,99525.70
2023-01-13T22:54:31.656Z,99527.24
2023-01-13T22:56:59.260Z,99527.54
2023-01-13T22:59:27.270Z,99527.74
2023-01-13T23:01:54.901Z,99529.79
2023-01-13T23:04:22.805Z,99531.17
2023-01-13T23:06:50.514Z,99526.39
2023-01-13T23:09:18.120Z,99525.21
2023-01-13T23:11:47.786Z,99531.15
2023-01-13T23:14:15.934Z,99528.87
2023-01-13T23:16:43.691Z,99524.01
2023-01-13T23:19:11.575Z,99523.59
2023-01-13T23:21:40.359Z,99517.67
2023-01-13T23:24:08.217Z,99518.13
2023-01-13T23:26:36.544Z,99519.85
2023-01-13T23:29:05.723Z,99511.90
2023-01-13T23:31:34.164Z,99514.15
2023-01-13T23:34:02.043Z,99517.02
2023-01-13T23:36:30.056Z,99521.55
2023-01-13T23:38:59.108Z,99523.39
2023-01-13T23:41:28.065Z,99527.33
2023-01-13T23:43:57.305Z,99523.20
2023-01-13T23:46:26.238Z,99525.55
2023-01-13T23:48:55.323Z,99520.95
2023-01-13T23:51:25.202Z,99516.78
2023-01-13T23:53:53.781Z,99513.37
2023-01-13T23:56:25.525Z,99519.48
2023-01-13T23:58:53.411Z,99521.58
